KEAN

Phifer Airfield Airport

Wheatland, Wyoming, USA
METAR KEAN 181615Z AUTO 24025G36KT 10SM CLR 07/M06 A2986 RMK AO2
Observed Flight Rules
Dec-18 @ 16:15 UTC (15 minutes ago) Visual Flight Rules
Wind Visibility Clouds
240° at 25 knots
 Gusting to 36 knots
10 miles
  • Clear skies
Temperatures Readings
Current 7°C / 45°F
Dewpoint -6°C / 21°F
Humidity 39%
Altimeter 29.86" Hg
Pressure 1011 hPa
Elevation 1456
METAR KEAN 181615Z AUTO 24025G36KT 10SM CLR 07/M06 A2986 RMK AO2
Observed Flight Rules
Dec-18 @ 16:15 UTC
(15 minutes ago)
VFR
Wind Visibility
240° at 25 knots
 Gusting to 36 knots
10 miles
Clouds
  • Clear skies
Temperature Dewpoint
7°C / 45°F -6°C / 21°F
Humidity Altimeter Pressure
39% 29.86" Hg 1011 hPa